sensor_id;sensor_type;location;lat;lon;timestamp;pressure;altitude;pressure_sealevel;temperature;humidity
10366;BME280;5229;41.820;23.490;2022-07-03T00:01:35;90564.34;;;20.50;55.86
10366;BME280;5229;41.820;23.490;2022-07-03T00:04:03;90572.13;;;20.43;56.08
10366;BME280;5229;41.820;23.490;2022-07-03T00:06:32;90570.94;;;20.41;56.16
10366;BME280;5229;41.820;23.490;2022-07-03T00:08:59;90574.69;;;20.40;56.06
10366;BME280;5229;41.820;23.490;2022-07-03T00:11:26;90580.28;;;20.38;56.10
10366;BME280;5229;41.820;23.490;2022-07-03T00:13:53;90572.38;;;20.38;56.28
10366;BME280;5229;41.820;23.490;2022-07-03T00:16:20;90574.50;;;20.29;55.89
10366;BME280;5229;41.820;23.490;2022-07-03T00:18:47;90578.84;;;20.22;56.20
10366;BME280;5229;41.820;23.490;2022-07-03T00:21:19;90573.59;;;20.22;56.44
10366;BME280;5229;41.820;23.490;2022-07-03T00:23:52;90575.53;;;20.25;56.51
10366;BME280;5229;41.820;23.490;2022-07-03T00:26:21;90571.44;;;20.27;56.14
10366;BME280;5229;41.820;23.490;2022-07-03T00:28:49;90570.25;;;20.25;56.44
10366;BME280;5229;41.820;23.490;2022-07-03T00:31:16;90566.03;;;20.20;56.43
10366;BME280;5229;41.820;23.490;2022-07-03T00:33:44;90573.09;;;20.16;56.71
10366;BME280;5229;41.820;23.490;2022-07-03T00:36:11;90563.69;;;20.15;56.76
10366;BME280;5229;41.820;23.490;2022-07-03T00:38:38;90563.91;;;20.10;56.91
10366;BME280;5229;41.820;23.490;2022-07-03T00:41:07;90560.09;;;20.07;57.05
10366;BME280;5229;41.820;23.490;2022-07-03T00:43:34;90555.03;;;19.99;57.21
10366;BME280;5229;41.820;23.490;2022-07-03T00:46:06;90546.59;;;19.90;57.70
10366;BME280;5229;41.820;23.490;2022-07-03T00:48:36;90547.28;;;19.87;57.32
10366;BME280;5229;41.820;23.490;2022-07-03T00:51:05;90550.16;;;19.82;57.63
10366;BME280;5229;41.820;23.490;2022-07-03T00:53:36;90553.91;;;19.81;57.61
10366;BME280;5229;41.820;23.490;2022-07-03T00:56:04;90553.50;;;19.79;57.72
10366;BME280;5229;41.820;23.490;2022-07-03T00:58:33;90548.16;;;19.75;57.99
10366;BME280;5229;41.820;23.490;2022-07-03T01:01:01;90545.88;;;19.74;58.45
10366;BME280;5229;41.820;23.490;2022-07-03T01:03:29;90544.41;;;19.76;58.24
10366;BME280;5229;41.820;23.490;2022-07-03T01:06:03;90550.44;;;19.77;58.23
10366;BME280;5229;41.820;23.490;2022-07-03T01:08:34;90548.94;;;19.76;58.47
10366;BME280;5229;41.820;23.490;2022-07-03T01:11:07;90547.38;;;19.75;59.25
10366;BME280;5229;41.820;23.490;2022-07-03T01:13:52;90553.78;;;19.74;58.74
10366;BME280;5229;41.820;23.490;2022-07-03T01:16:25;90547.00;;;19.73;58.67
10366;BME280;5229;41.820;23.490;2022-07-03T01:18:55;90542.41;;;19.70;58.94
10366;BME280;5229;41.820;23.490;2022-07-03T01:21:30;90541.97;;;19.68;59.03
10366;BME280;5229;41.820;23.490;2022-07-03T01:27:27;90535.72;;;19.57;59.88
10366;BME280;5229;41.820;23.490;2022-07-03T01:30:02;90535.31;;;19.55;59.97
10366;BME280;5229;41.820;23.490;2022-07-03T01:32:34;90536.41;;;19.54;59.84
10366;BME280;5229;41.820;23.490;2022-07-03T01:35:07;90537.97;;;19.55;59.93
10366;BME280;5229;41.820;23.490;2022-07-03T01:37:35;90539.91;;;19.58;59.66
10366;BME280;5229;41.820;23.490;2022-07-03T01:40:05;90542.53;;;19.58;59.69
10366;BME280;5229;41.820;23.490;2022-07-03T01:42:35;90546.69;;;19.59;59.66
10366;BME280;5229;41.820;23.490;2022-07-03T01:45:08;90547.09;;;19.61;59.66
10366;BME280;5229;41.820;23.490;2022-07-03T01:47:38;90545.56;;;19.60;59.55
10366;BME280;5229;41.820;23.490;2022-07-03T01:50:07;90538.78;;;19.59;59.53
10366;BME280;5229;41.820;23.490;2022-07-03T01:52:37;90544.41;;;19.57;59.40
10366;BME280;5229;41.820;23.490;2022-07-03T01:55:08;90547.38;;;19.56;59.09
10366;BME280;5229;41.820;23.490;2022-07-03T01:57:41;90558.50;;;19.49;59.35
10366;BME280;5229;41.820;23.490;2022-07-03T02:00:09;90551.97;;;19.43;59.12
10366;BME280;5229;41.820;23.490;2022-07-03T02:02:41;90564.97;;;19.36;59.59
10366;BME280;5229;41.820;23.490;2022-07-03T02:05:15;90555.75;;;19.27;59.71
10366;BME280;5229;41.820;23.490;2022-07-03T02:07:51;90557.94;;;19.25;59.83
10366;BME280;5229;41.820;23.490;2022-07-03T02:10:28;90563.09;;;19.21;59.76
10366;BME280;5229;41.820;23.490;2022-07-03T02:13:00;90560.81;;;19.20;60.07
10366;BME280;5229;41.820;23.490;2022-07-03T02:15:30;90557.41;;;19.19;60.04
10366;BME280;5229;41.820;23.490;2022-07-03T02:18:00;90563.44;;;19.20;60.49
10366;BME280;5229;41.820;23.490;2022-07-03T02:20:33;90563.84;;;19.22;60.42
10366;BME280;5229;41.820;23.490;2022-07-03T02:23:02;90556.41;;;19.24;60.02
10366;BME280;5229;41.820;23.490;2022-07-03T02:25:33;90560.22;;;19.26;60.38
10366;BME280;5229;41.820;23.490;2022-07-03T02:28:04;90556.09;;;19.25;60.23
10366;BME280;5229;41.820;23.490;2022-07-03T02:30:35;90570.66;;;19.23;60.32
10366;BME280;5229;41.820;23.490;2022-07-03T02:33:04;90565.63;;;19.18;60.58
10366;BME280;5229;41.820;23.490;2022-07-03T02:35:33;90569.38;;;19.17;60.78
10366;BME280;5229;41.820;23.490;2022-07-03T02:38:04;90564.13;;;19.17;60.82
10366;BME280;5229;41.820;23.490;2022-07-03T02:40:37;90562.25;;;19.17;60.79
10366;BME280;5229;41.820;23.490;2022-07-03T02:43:18;90565.63;;;19.18;60.99
10366;BME280;5229;41.820;23.490;2022-07-03T02:45:49;90565.06;;;19.24;60.80
10366;BME280;5229;41.820;23.490;2022-07-03T02:48:26;90562.63;;;19.31;61.24
10366;BME280;5229;41.820;23.490;2022-07-03T02:50:59;90573.28;;;19.38;61.27
10366;BME280;5229;41.820;23.490;2022-07-03T02:53:35;90570.06;;;19.45;61.13
10366;BME280;5229;41.820;23.490;2022-07-03T02:56:07;90566.06;;;19.51;60.90
10366;BME280;5229;41.820;23.490;2022-07-03T02:59:03;90567.50;;;19.48;61.04
10366;BME280;5229;41.820;23.490;2022-07-03T03:01:41;90579.63;;;19.53;60.86
10366;BME280;5229;41.820;23.490;2022-07-03T03:04:21;90571.88;;;19.60;60.90
10366;BME280;5229;41.820;23.490;2022-07-03T03:06:54;90570.03;;;19.60;61.07
10366;BME280;5229;41.820;23.490;2022-07-03T03:09:26;90573.16;;;19.66;61.00
10366;BME280;5229;41.820;23.490;2022-07-03T03:11:55;90576.34;;;19.75;61.00
10366;BME280;5229;41.820;23.490;2022-07-03T03:14:34;90576.09;;;19.80;61.03
10366;BME280;5229;41.820;23.490;2022-07-03T03:17:06;90578.88;;;19.87;61.00
10366;BME280;5229;41.820;23.490;2022-07-03T03:19:36;90574.84;;;19.93;60.92
10366;BME280;5229;41.820;23.490;2022-07-03T03:22:14;90576.53;;;20.01;60.83
10366;BME280;5229;41.820;23.490;2022-07-03T03:24:43;90580.06;;;20.08;60.92
10366;BME280;5229;41.820;23.490;2022-07-03T03:27:10;90582.13;;;20.15;60.85
10366;BME280;5229;41.820;23.490;2022-07-03T03:29:39;90580.38;;;20.23;60.53
10366;BME280;5229;41.820;23.490;2022-07-03T03:32:07;90586.59;;;20.34;60.62
10366;BME280;5229;41.820;23.490;2022-07-03T03:34:34;90589.81;;;20.43;60.59
10366;BME280;5229;41.820;23.490;2022-07-03T03:37:02;90590.72;;;20.50;60.50
10366;BME280;5229;41.820;23.490;2022-07-03T03:39:29;90595.38;;;20.60;60.31
10366;BME280;5229;41.820;23.490;2022-07-03T03:41:56;90597.19;;;20.75;60.02
10366;BME280;5229;41.820;23.490;2022-07-03T03:44:24;90592.88;;;20.86;60.04
10366;BME280;5229;41.820;23.490;2022-07-03T03:46:52;90585.50;;;20.95;59.69
10366;BME280;5229;41.820;23.490;2022-07-03T03:49:19;90591.38;;;21.08;59.56
10366;BME280;5229;41.820;23.490;2022-07-03T03:51:46;90588.63;;;21.23;59.49
10366;BME280;5229;41.820;23.490;2022-07-03T03:54:13;90590.34;;;21.38;58.93
10366;BME280;5229;41.820;23.490;2022-07-03T03:56:40;90598.91;;;21.54;59.01
10366;BME280;5229;41.820;23.490;2022-07-03T03:59:07;90601.34;;;21.66;59.08
10366;BME280;5229;41.820;23.490;2022-07-03T04:01:33;90599.25;;;21.75;59.00
10366;BME280;5229;41.820;23.490;2022-07-03T04:04:02;90602.09;;;21.89;58.84
10366;BME280;5229;41.820;23.490;2022-07-03T04:06:28;90602.28;;;22.03;58.98
10366;BME280;5229;41.820;23.490;2022-07-03T04:08:55;90603.19;;;22.14;58.81
10366;BME280;5229;41.820;23.490;2022-07-03T04:11:22;90595.81;;;22.27;58.06
10366;BME280;5229;41.820;23.490;2022-07-03T04:13:49;90603.13;;;22.40;57.93
10366;BME280;5229;41.820;23.490;2022-07-03T04:16:16;90599.59;;;22.55;58.22
10366;BME280;5229;41.820;23.490;2022-07-03T04:18:43;90605.44;;;22.71;57.82
10366;BME280;5229;41.820;23.490;2022-07-03T04:21:11;90604.84;;;22.88;57.56
10366;BME280;5229;41.820;23.490;2022-07-03T04:23:39;90602.34;;;23.03;57.41
10366;BME280;5229;41.820;23.490;2022-07-03T04:26:06;90611.94;;;23.14;57.32
10366;BME280;5229;41.820;23.490;2022-07-03T04:28:33;90608.25;;;23.22;57.03
10366;BME280;5229;41.820;23.490;2022-07-03T04:31:00;90604.16;;;23.32;56.90
10366;BME280;5229;41.820;23.490;2022-07-03T04:33:27;90607.72;;;23.46;57.01
10366;BME280;5229;41.820;23.490;2022-07-03T04:35:54;90613.84;;;23.61;56.74
10366;BME280;5229;41.820;23.490;2022-07-03T04:38:22;90614.69;;;23.72;56.40
10366;BME280;5229;41.820;23.490;2022-07-03T04:40:49;90606.75;;;23.72;56.19
10366;BME280;5229;41.820;23.490;2022-07-03T04:43:15;90607.88;;;23.71;56.35
10366;BME280;5229;41.820;23.490;2022-07-03T04:45:43;90607.47;;;23.65;56.47
10366;BME280;5229;41.820;23.490;2022-07-03T04:48:10;90610.44;;;23.57;56.59
10366;BME280;5229;41.820;23.490;2022-07-03T04:50:37;90600.91;;;23.49;56.82
10366;BME280;5229;41.820;23.490;2022-07-03T04:53:04;90600.50;;;23.47;56.84
10366;BME280;5229;41.820;23.490;2022-07-03T04:55:32;90597.50;;;23.48;57.13
10366;BME280;5229;41.820;23.490;2022-07-03T04:57:59;90592.66;;;23.61;57.29
10366;BME280;5229;41.820;23.490;2022-07-03T05:00:25;90602.69;;;23.85;56.98
10366;BME280;5229;41.820;23.490;2022-07-03T05:02:52;90603.66;;;24.13;56.04
10366;BME280;5229;41.820;23.490;2022-07-03T05:05:19;90599.28;;;24.45;55.52
10366;BME280;5229;41.820;23.490;2022-07-03T05:07:46;90606.25;;;24.74;54.04
10366;BME280;5229;41.820;23.490;2022-07-03T05:10:13;90613.88;;;24.90;53.73
10366;BME280;5229;41.820;23.490;2022-07-03T05:12:41;90607.06;;;24.92;53.51
10366;BME280;5229;41.820;23.490;2022-07-03T05:15:09;90608.59;;;24.97;53.65
10366;BME280;5229;41.820;23.490;2022-07-03T05:17:36;90612.41;;;25.03;53.47
10366;BME280;5229;41.820;23.490;2022-07-03T05:20:03;90612.41;;;25.06;53.05
10366;BME280;5229;41.820;23.490;2022-07-03T05:22:48;90601.78;;;25.06;52.67
10366;BME280;5229;41.820;23.490;2022-07-03T05:25:15;90602.56;;;25.10;52.59
10366;BME280;5229;41.820;23.490;2022-07-03T05:27:43;90592.69;;;25.14;52.64
10366;BME280;5229;41.820;23.490;2022-07-03T05:30:10;90604.09;;;25.22;52.79
10366;BME280;5229;41.820;23.490;2022-07-03T05:32:37;90597.69;;;25.30;52.44
10366;BME280;5229;41.820;23.490;2022-07-03T05:35:05;90594.69;;;25.42;52.34
10366;BME280;5229;41.820;23.490;2022-07-03T05:37:32;90598.47;;;25.55;51.65
10366;BME280;5229;41.820;23.490;2022-07-03T05:39:59;90610.66;;;25.77;51.28
10366;BME280;5229;41.820;23.490;2022-07-03T05:42:26;90604.97;;;25.96;50.97
10366;BME280;5229;41.820;23.490;2022-07-03T05:44:54;90610.25;;;26.17;50.87
10366;BME280;5229;41.820;23.490;2022-07-03T05:47:20;90606.81;;;26.34;49.93
10366;BME280;5229;41.820;23.490;2022-07-03T05:49:47;90613.19;;;26.54;49.78
10366;BME280;5229;41.820;23.490;2022-07-03T05:52:14;90614.69;;;26.76;49.44
10366;BME280;5229;41.820;23.490;2022-07-03T05:54:41;90615.38;;;26.94;48.79
10366;BME280;5229;41.820;23.490;2022-07-03T05:57:08;90613.75;;;27.11;48.65
10366;BME280;5229;41.820;23.490;2022-07-03T05:59:35;90616.34;;;27.28;48.70
10366;BME280;5229;41.820;23.490;2022-07-03T06:02:04;90613.16;;;27.51;47.97
10366;BME280;5229;41.820;23.490;2022-07-03T06:04:31;90612.69;;;27.70;46.99
10366;BME280;5229;41.820;23.490;2022-07-03T06:06:57;90615.63;;;27.86;46.38
10366;BME280;5229;41.820;23.490;2022-07-03T06:09:24;90614.72;;;28.03;46.26
10366;BME280;5229;41.820;23.490;2022-07-03T06:11:51;90609.22;;;28.21;46.10
10366;BME280;5229;41.820;23.490;2022-07-03T06:14:18;90609.81;;;28.39;45.16
10366;BME280;5229;41.820;23.490;2022-07-03T06:16:45;90608.91;;;28.56;44.59
10366;BME280;5229;41.820;23.490;2022-07-03T06:19:13;90611.38;;;28.73;43.41
10366;BME280;5229;41.820;23.490;2022-07-03T06:21:40;90610.84;;;28.89;43.20
10366;BME280;5229;41.820;23.490;2022-07-03T06:24:07;90609.53;;;29.04;42.37
10366;BME280;5229;41.820;23.490;2022-07-03T06:26:34;90606.63;;;29.21;41.67
10366;BME280;5229;41.820;23.490;2022-07-03T06:29:00;90601.84;;;29.36;41.48
10366;BME280;5229;41.820;23.490;2022-07-03T06:31:27;90603.16;;;29.51;41.07
10366;BME280;5229;41.820;23.490;2022-07-03T06:33:54;90597.25;;;29.66;40.47
10366;BME280;5229;41.820;23.490;2022-07-03T06:36:22;90609.63;;;29.80;39.89
10366;BME280;5229;41.820;23.490;2022-07-03T06:38:49;90597.63;;;29.91;39.68
10366;BME280;5229;41.820;23.490;2022-07-03T06:41:16;90607.69;;;30.07;39.43
10366;BME280;5229;41.820;23.490;2022-07-03T06:43:42;90605.97;;;30.20;39.04
10366;BME280;5229;41.820;23.490;2022-07-03T06:46:09;90601.13;;;30.34;37.69
10366;BME280;5229;41.820;23.490;2022-07-03T06:48:36;90600.16;;;30.48;36.95
10366;BME280;5229;41.820;23.490;2022-07-03T06:51:03;90597.63;;;30.60;36.65
10366;BME280;5229;41.820;23.490;2022-07-03T06:53:31;90596.25;;;30.72;35.94
10366;BME280;5229;41.820;23.490;2022-07-03T06:55:58;90595.25;;;30.86;35.73
10366;BME280;5229;41.820;23.490;2022-07-03T06:58:24;90596.97;;;30.96;35.15
10366;BME280;5229;41.820;23.490;2022-07-03T07:00:51;90586.72;;;31.10;35.10
10366;BME280;5229;41.820;23.490;2022-07-03T07:03:18;90595.28;;;31.21;34.46
10366;BME280;5229;41.820;23.490;2022-07-03T07:05:45;90588.31;;;31.27;33.82
10366;BME280;5229;41.820;23.490;2022-07-03T07:08:12;90596.19;;;31.34;33.65
10366;BME280;5229;41.820;23.490;2022-07-03T07:10:40;90595.69;;;31.39;33.20
10366;BME280;5229;41.820;23.490;2022-07-03T07:13:07;90591.44;;;31.42;33.20
10366;BME280;5229;41.820;23.490;2022-07-03T07:15:34;90592.38;;;31.51;32.77
10366;BME280;5229;41.820;23.490;2022-07-03T07:18:01;90597.19;;;31.60;32.86
10366;BME280;5229;41.820;23.490;2022-07-03T07:20:28;90600.03;;;31.69;32.20
10366;BME280;5229;41.820;23.490;2022-07-03T07:22:54;90587.53;;;31.78;31.73
10366;BME280;5229;41.820;23.490;2022-07-03T07:25:21;90590.22;;;31.78;31.65
10366;BME280;5229;41.820;23.490;2022-07-03T07:27:49;90584.84;;;31.78;31.71
10366;BME280;5229;41.820;23.490;2022-07-03T07:30:16;90582.75;;;31.89;31.76
10366;BME280;5229;41.820;23.490;2022-07-03T07:32:44;90591.63;;;32.02;31.58
10366;BME280;5229;41.820;23.490;2022-07-03T07:35:11;90585.91;;;32.16;31.26
10366;BME280;5229;41.820;23.490;2022-07-03T07:37:38;90586.75;;;32.29;31.07
10366;BME280;5229;41.820;23.490;2022-07-03T07:40:06;90591.44;;;32.41;30.97
10366;BME280;5229;41.820;23.490;2022-07-03T07:42:33;90586.91;;;32.54;31.13
10366;BME280;5229;41.820;23.490;2022-07-03T07:45:01;90587.19;;;32.72;30.74
10366;BME280;5229;41.820;23.490;2022-07-03T07:47:28;90583.31;;;32.89;30.01
10366;BME280;5229;41.820;23.490;2022-07-03T07:49:54;90586.38;;;33.04;29.89
10366;BME280;5229;41.820;23.490;2022-07-03T07:52:21;90590.03;;;33.22;29.88
10366;BME280;5229;41.820;23.490;2022-07-03T07:54:49;90576.56;;;33.39;29.38
10366;BME280;5229;41.820;23.490;2022-07-03T07:57:17;90576.22;;;33.49;29.18
10366;BME280;5229;41.820;23.490;2022-07-03T07:59:44;90578.72;;;33.56;28.61
10366;BME280;5229;41.820;23.490;2022-07-03T08:02:12;90579.25;;;33.51;28.51
10366;BME280;5229;41.820;23.490;2022-07-03T08:04:56;90574.31;;;33.50;27.85
10366;BME280;5229;41.820;23.490;2022-07-03T08:07:48;90577.97;;;33.43;27.68
10366;BME280;5229;41.820;23.490;2022-07-03T08:10:15;90567.44;;;33.49;28.23
10366;BME280;5229;41.820;23.490;2022-07-03T08:12:42;90568.50;;;33.64;27.63
10366;BME280;5229;41.820;23.490;2022-07-03T08:15:09;90571.28;;;33.73;27.12
10366;BME280;5229;41.820;23.490;2022-07-03T08:17:37;90570.56;;;33.85;27.42
10366;BME280;5229;41.820;23.490;2022-07-03T08:20:04;90572.94;;;33.95;27.39
10366;BME280;5229;41.820;23.490;2022-07-03T08:22:31;90558.16;;;34.00;26.88
10366;BME280;5229;41.820;23.490;2022-07-03T08:24:58;90565.47;;;33.99;26.84
10366;BME280;5229;41.820;23.490;2022-07-03T08:27:25;90566.03;;;34.07;26.36
10366;BME280;5229;41.820;23.490;2022-07-03T08:29:52;90563.53;;;34.12;26.53
10366;BME280;5229;41.820;23.490;2022-07-03T08:32:19;90561.81;;;34.18;26.18
10366;BME280;5229;41.820;23.490;2022-07-03T08:34:47;90559.38;;;34.33;26.20
10366;BME280;5229;41.820;23.490;2022-07-03T08:37:13;90571.25;;;34.48;26.42
10366;BME280;5229;41.820;23.490;2022-07-03T08:39:40;90576.59;;;34.60;26.30
10366;BME280;5229;41.820;23.490;2022-07-03T08:42:10;90564.13;;;34.75;25.95
10366;BME280;5229;41.820;23.490;2022-07-03T08:44:38;90560.47;;;35.03;25.51
10366;BME280;5229;41.820;23.490;2022-07-03T08:47:07;90561.59;;;35.67;24.54
10366;BME280;5229;41.820;23.490;2022-07-03T08:49:34;90567.06;;;36.73;22.76
10366;BME280;5229;41.820;23.490;2022-07-03T08:52:03;90566.56;;;38.07;21.77
10366;BME280;5229;41.820;23.490;2022-07-03T08:54:33;90563.88;;;39.24;20.20
10366;BME280;5229;41.820;23.490;2022-07-03T08:57:00;90567.91;;;40.16;19.80
10366;BME280;5229;41.820;23.490;2022-07-03T08:59:32;90579.47;;;41.00;19.49
10366;BME280;5229;41.820;23.490;2022-07-03T09:01:59;90577.16;;;41.84;18.53
10366;BME280;5229;41.820;23.490;2022-07-03T09:04:26;90577.00;;;42.55;17.69
10366;BME280;5229;41.820;23.490;2022-07-03T09:06:53;90581.72;;;43.03;17.27
10366;BME280;5229;41.820;23.490;2022-07-03T09:09:22;90567.16;;;43.17;17.30
10366;BME280;5229;41.820;23.490;2022-07-03T09:11:49;90564.81;;;43.57;16.54
10366;BME280;5229;41.820;23.490;2022-07-03T09:14:17;90569.59;;;44.39;16.63
10366;BME280;5229;41.820;23.490;2022-07-03T09:16:44;90572.00;;;45.09;16.20
10366;BME280;5229;41.820;23.490;2022-07-03T09:19:11;90564.25;;;45.65;15.08
10366;BME280;5229;41.820;23.490;2022-07-03T09:21:39;90566.06;;;45.92;15.13
10366;BME280;5229;41.820;23.490;2022-07-03T09:24:08;90570.75;;;46.37;14.79
10366;BME280;5229;41.820;23.490;2022-07-03T09:26:49;90567.38;;;47.03;14.60
10366;BME280;5229;41.820;23.490;2022-07-03T09:29:16;90568.81;;;47.53;14.65
10366;BME280;5229;41.820;23.490;2022-07-03T09:31:53;90571.19;;;47.80;14.55
10366;BME280;5229;41.820;23.490;2022-07-03T09:34:21;90561.25;;;47.96;13.97
10366;BME280;5229;41.820;23.490;2022-07-03T09:36:49;90560.41;;;48.32;14.10
10366;BME280;5229;41.820;23.490;2022-07-03T09:39:17;90563.34;;;48.53;14.01
10366;BME280;5229;41.820;23.490;2022-07-03T09:41:59;90567.44;;;48.78;14.02
10366;BME280;5229;41.820;23.490;2022-07-03T09:44:34;90561.41;;;48.92;13.14
10366;BME280;5229;41.820;23.490;2022-07-03T09:47:15;90565.44;;;48.91;13.06
10366;BME280;5229;41.820;23.490;2022-07-03T09:49:47;90560.00;;;48.86;12.73
10366;BME280;5229;41.820;23.490;2022-07-03T09:52:33;90554.72;;;48.75;12.56
10366;BME280;5229;41.820;23.490;2022-07-03T09:55:01;90548.97;;;48.73;12.70
10366;BME280;5229;41.820;23.490;2022-07-03T09:57:30;90543.88;;;48.77;12.78
10366;BME280;5229;41.820;23.490;2022-07-03T10:00:08;90542.72;;;48.85;13.01
10366;BME280;5229;41.820;23.490;2022-07-03T10:02:40;90546.16;;;48.91;12.47
10366;BME280;5229;41.820;23.490;2022-07-03T10:05:17;90549.19;;;48.75;12.72
10366;BME280;5229;41.820;23.490;2022-07-03T10:07:54;90545.00;;;48.55;12.27
10366;BME280;5229;41.820;23.490;2022-07-03T10:10:24;90534.34;;;48.65;12.39
10366;BME280;5229;41.820;23.490;2022-07-03T10:12:53;90535.94;;;48.73;13.25
10366;BME280;5229;41.820;23.490;2022-07-03T10:15:21;90529.56;;;48.78;12.82
10366;BME280;5229;41.820;23.490;2022-07-03T10:17:50;90525.97;;;48.83;13.14
10366;BME280;5229;41.820;23.490;2022-07-03T10:20:24;90530.03;;;49.08;13.14
10366;BME280;5229;41.820;23.490;2022-07-03T10:22:53;90526.84;;;49.04;13.28
10366;BME280;5229;41.820;23.490;2022-07-03T10:25:20;90524.50;;;49.08;13.24
10366;BME280;5229;41.820;23.490;2022-07-03T10:27:47;90521.53;;;49.06;12.77
10366;BME280;5229;41.820;23.490;2022-07-03T10:30:17;90521.63;;;48.88;12.98
10366;BME280;5229;41.820;23.490;2022-07-03T10:32:47;90518.03;;;48.67;12.98
10366;BME280;5229;41.820;23.490;2022-07-03T10:35:16;90516.28;;;48.51;12.75
10366;BME280;5229;41.820;23.490;2022-07-03T10:37:52;90510.72;;;47.93;12.88
10366;BME280;5229;41.820;23.490;2022-07-03T10:40:31;90507.72;;;46.50;13.74
10366;BME280;5229;41.820;23.490;2022-07-03T10:43:25;90501.75;;;45.00;14.67
10366;BME280;5229;41.820;23.490;2022-07-03T10:46:13;90486.53;;;43.76;15.51
10366;BME280;5229;41.820;23.490;2022-07-03T10:51:57;90480.94;;;41.78;16.76
10366;BME280;5229;41.820;23.490;2022-07-03T10:54:26;90473.00;;;40.98;17.51
10366;BME280;5229;41.820;23.490;2022-07-03T10:57:14;90474.22;;;40.17;18.78
10366;BME280;5229;41.820;23.490;2022-07-03T10:59:56;90453.69;;;39.67;19.08
10366;BME280;5229;41.820;23.490;2022-07-03T11:02:27;90455.59;;;39.32;19.27
10366;BME280;5229;41.820;23.490;2022-07-03T11:05:07;90459.16;;;38.94;19.87
10366;BME280;5229;41.820;23.490;2022-07-03T11:07:42;90452.91;;;38.50;19.93
10366;BME280;5229;41.820;23.490;2022-07-03T11:10:36;90455.53;;;37.88;20.51
10366;BME280;5229;41.820;23.490;2022-07-03T11:13:17;90457.16;;;37.53;21.25
10366;BME280;5229;41.820;23.490;2022-07-03T11:15:52;90445.28;;;37.18;21.52
10366;BME280;5229;41.820;23.490;2022-07-03T11:18:25;90447.13;;;36.85;21.33
10366;BME280;5229;41.820;23.490;2022-07-03T11:21:21;90445.03;;;36.44;21.96
10366;BME280;5229;41.820;23.490;2022-07-03T11:24:14;90438.53;;;36.15;22.03
10366;BME280;5229;41.820;23.490;2022-07-03T11:26:44;90435.69;;;36.00;22.68
10366;BME280;5229;41.820;23.490;2022-07-03T11:29:28;90440.63;;;35.84;23.09
10366;BME280;5229;41.820;23.490;2022-07-03T11:31:55;90437.41;;;35.67;22.64
10366;BME280;5229;41.820;23.490;2022-07-03T11:34:23;90440.94;;;35.46;22.98
10366;BME280;5229;41.820;23.490;2022-07-03T11:36:50;90433.94;;;35.27;23.09
10366;BME280;5229;41.820;23.490;2022-07-03T11:39:19;90428.81;;;35.20;23.53
10366;BME280;5229;41.820;23.490;2022-07-03T11:41:47;90425.78;;;35.09;23.66
10366;BME280;5229;41.820;23.490;2022-07-03T11:44:16;90422.13;;;34.94;23.41
10366;BME280;5229;41.820;23.490;2022-07-03T11:46:48;90421.09;;;34.79;24.25
10366;BME280;5229;41.820;23.490;2022-07-03T11:49:17;90417.75;;;34.66;24.20
10366;BME280;5229;41.820;23.490;2022-07-03T11:51:56;90406.72;;;34.51;23.87
10366;BME280;5229;41.820;23.490;2022-07-03T11:54:23;90413.13;;;34.45;24.85
10366;BME280;5229;41.820;23.490;2022-07-03T11:56:50;90424.16;;;34.38;24.94
10366;BME280;5229;41.820;23.490;2022-07-03T11:59:17;90409.75;;;34.19;24.06
10366;BME280;5229;41.820;23.490;2022-07-03T12:01:44;90408.56;;;33.99;24.53
10366;BME280;5229;41.820;23.490;2022-07-03T12:04:12;90403.94;;;33.87;24.93
10366;BME280;5229;41.820;23.490;2022-07-03T12:06:41;90402.13;;;33.84;24.80
10366;BME280;5229;41.820;23.490;2022-07-03T12:09:18;90400.09;;;33.75;25.48
10366;BME280;5229;41.820;23.490;2022-07-03T12:11:56;90397.44;;;33.63;25.17
10366;BME280;5229;41.820;23.490;2022-07-03T12:14:43;90391.75;;;33.48;25.86
10366;BME280;5229;41.820;23.490;2022-07-03T12:17:12;90393.91;;;33.41;25.78
10366;BME280;5229;41.820;23.490;2022-07-03T12:19:45;90395.53;;;33.26;26.36
10366;BME280;5229;41.820;23.490;2022-07-03T12:22:12;90385.97;;;33.12;26.50
10366;BME280;5229;41.820;23.490;2022-07-03T12:24:40;90381.56;;;33.05;26.74
10366;BME280;5229;41.820;23.490;2022-07-03T12:27:08;90384.03;;;33.00;26.73
10366;BME280;5229;41.820;23.490;2022-07-03T12:29:35;90388.69;;;32.99;26.63
10366;BME280;5229;41.820;23.490;2022-07-03T12:32:07;90385.66;;;32.97;27.13
10366;BME280;5229;41.820;23.490;2022-07-03T12:34:36;90381.47;;;32.96;27.55
10366;BME280;5229;41.820;23.490;2022-07-03T12:37:03;90371.47;;;32.97;27.26
10366;BME280;5229;41.820;23.490;2022-07-03T12:39:46;90370.38;;;32.94;27.28
10366;BME280;5229;41.820;23.490;2022-07-03T12:42:20;90373.50;;;32.93;27.55
10366;BME280;5229;41.820;23.490;2022-07-03T12:44:57;90372.97;;;32.85;27.62
10366;BME280;5229;41.820;23.490;2022-07-03T12:47:25;90372.66;;;32.83;27.30
10366;BME280;5229;41.820;23.490;2022-07-03T12:49:56;90369.28;;;32.79;27.44
10366;BME280;5229;41.820;23.490;2022-07-03T12:52:24;90370.47;;;32.78;27.73
10366;BME280;5229;41.820;23.490;2022-07-03T12:54:52;90364.97;;;32.82;27.97
10366;BME280;5229;41.820;23.490;2022-07-03T12:57:21;90365.75;;;32.82;27.76
10366;BME280;5229;41.820;23.490;2022-07-03T13:00:06;90369.72;;;32.78;27.80
10366;BME280;5229;41.820;23.490;2022-07-03T13:02:35;90368.00;;;32.71;27.42
10366;BME280;5229;41.820;23.490;2022-07-03T13:05:13;90369.81;;;32.62;27.57
10366;BME280;5229;41.820;23.490;2022-07-03T13:07:42;90373.25;;;32.62;27.70
10366;BME280;5229;41.820;23.490;2022-07-03T13:10:10;90370.56;;;32.62;27.91
10366;BME280;5229;41.820;23.490;2022-07-03T13:12:45;90366.72;;;32.63;28.23
10366;BME280;5229;41.820;23.490;2022-07-03T13:15:12;90361.66;;;32.65;27.93
10366;BME280;5229;41.820;23.490;2022-07-03T13:17:59;90362.72;;;32.55;28.37
10366;BME280;5229;41.820;23.490;2022-07-03T13:20:28;90366.69;;;32.51;28.29
10366;BME280;5229;41.820;23.490;2022-07-03T13:22:56;90365.38;;;32.43;28.50